Terminal Aerodrome Forecast
Issued by NWS Charleston, WV

Current Version | Previous Version | Graphics & Text | Print | Product List | Glossary On
Versions: 1 2 3 4 5 6 7 8 9 10 11 12 13 14 15 16 17 18 19 20 21 22 23 24 25 26
000
FTUS41 KRLX 200800 AAC
TAFBKW
TAF AMD
KBKW 200832Z 2009/2106 VRB03KT 3SM BR SKC
      TEMPO 2009/2010 1SM BR
     FM201200 00000KT P6SM VCTS BKN025CB
     FM201500 27005KT P6SM BKN025
     FM201600 27006KT P6SM VCTS BKN025CB
     FM201800 26007KT 6SM SHRA BR VCTS BKN025CB
     FM201900 26007KT P6SM VCTS BKN035CB
     FM210200 00000KT P6SM BKN040=

USA.gov is the U.S. government's official web portal to all federal, state and local government web resources and services.